Terminal Aerodrome Forecast
Issued by NWS

Home | Current Version | Previous Version | Text Only | Print | Product List | Glossary On
Versions: 1 2 3 4 5 6 7 8 9 10 11 12 13 14 15 16 17 18
000
FTUS43 KDMX 231525 AAA
TAFOTM
TAF AMD
KOTM 231525Z 2315/2412 21008KT P6SM SCT025 BKN040
     FM232000 24006KT P6SM FEW035
     FM240200 23004KT P6SM SKC=

USA.gov is the U.S. government's official web portal to all federal, state and local government web resources and services.